createdAt,value
2018-09-17T00:00:51.712Z,100441.86
2018-09-17T00:03:19.388Z,100442.27
2018-09-17T00:05:47.062Z,100434.51
2018-09-17T00:08:14.724Z,100431.86
2018-09-17T00:10:42.434Z,100430.88
2018-09-17T00:13:10.107Z,100433.59
2018-09-17T00:15:37.758Z,100434.37
2018-09-17T00:18:05.854Z,100434.13
2018-09-17T00:20:33.643Z,100427.61
2018-09-17T00:23:01.366Z,100430.26
2018-09-17T00:25:29.266Z,100428.49
2018-09-17T00:27:57.110Z,100427.52
2018-09-17T00:30:24.811Z,100416.86
2018-09-17T00:32:52.492Z,100419.75
2018-09-17T00:35:20.195Z,100416.91
2018-09-17T00:37:47.863Z,100419.30
2018-09-17T00:40:15.851Z,100411.48
2018-09-17T00:42:43.499Z,100415.55
2018-09-17T00:45:11.187Z,100414.22
2018-09-17T00:47:39.042Z,100413.20
2018-09-17T00:50:06.850Z,100413.41
2018-09-17T00:52:34.563Z,100422.11
2018-09-17T00:55:02.329Z,100420.73
2018-09-17T00:57:30.002Z,100418.19
2018-09-17T00:59:57.681Z,100420.70
2018-09-17T01:02:25.432Z,100421.08
2018-09-17T01:04:53.173Z,100421.84
2018-09-17T01:07:20.851Z,100416.73
2018-09-17T01:09:48.603Z,100416.63
2018-09-17T01:12:16.423Z,100417.19
2018-09-17T01:14:44.135Z,100420.73
2018-09-17T01:17:11.872Z,100416.83
2018-09-17T01:19:39.576Z,100413.06
2018-09-17T01:22:10.865Z,100415.38
2018-09-17T01:24:39.243Z,100410.73
2018-09-17T01:27:06.965Z,100413.80
2018-09-17T01:29:34.659Z,100413.05
2018-09-17T01:32:02.347Z,100410.34
2018-09-17T01:34:30.045Z,100416.84
2018-09-17T01:36:58.048Z,100416.22
2018-09-17T01:39:25.759Z,100411.45
2018-09-17T01:41:53.487Z,100410.94
2018-09-17T01:44:21.182Z,100415.72
2018-09-17T01:46:48.900Z,100415.66
2018-09-17T01:49:16.611Z,100413.13
2018-09-17T01:51:44.352Z,100411.00
2018-09-17T01:54:12.060Z,100414.19
2018-09-17T01:56:39.787Z,100422.25
2018-09-17T01:59:07.514Z,100419.61
2018-09-17T02:01:35.212Z,100421.69
2018-09-17T02:04:02.947Z,100415.70
2018-09-17T02:06:30.711Z,100420.98
2018-09-17T02:08:59.191Z,100418.74
2018-09-17T02:11:26.895Z,100419.44
2018-09-17T02:13:54.661Z,100418.88
2018-09-17T02:16:22.386Z,100419.44
2018-09-17T02:18:50.104Z,100420.62
2018-09-17T02:21:17.857Z,100422.58
2018-09-17T02:23:48.719Z,100415.02
2018-09-17T02:26:16.428Z,100415.16
2018-09-17T02:28:44.166Z,100417.61
2018-09-17T02:31:12.019Z,100422.12
2018-09-17T02:33:39.756Z,100418.97
2018-09-17T02:36:07.489Z,100425.96
2018-09-17T02:38:35.209Z,100430.05
2018-09-17T02:41:03.310Z,100436.88
2018-09-17T02:43:31.039Z,100431.80
2018-09-17T02:45:58.910Z,100433.67
2018-09-17T02:48:26.675Z,100438.98
2018-09-17T02:50:54.360Z,100431.73
2018-09-17T02:53:22.256Z,100431.19
2018-09-17T02:55:49.976Z,100431.27
2018-09-17T02:58:17.667Z,100431.58
2018-09-17T03:00:45.355Z,100437.43
2018-09-17T03:03:13.152Z,100434.33
2018-09-17T03:05:40.878Z,100437.52
2018-09-17T03:08:08.559Z,100442.91
2018-09-17T03:10:36.311Z,100440.45
2018-09-17T03:13:04.840Z,100442.91
2018-09-17T03:15:51.616Z,100447.05
2018-09-17T03:18:37.627Z,100437.94
2018-09-17T03:21:06.511Z,100450.06
2018-09-17T03:23:35.476Z,100450.92
2018-09-17T03:26:03.420Z,100451.11
2018-09-17T03:28:31.331Z,100458.02
2018-09-17T03:30:59.020Z,100454.16
2018-09-17T03:33:27.053Z,100453.00
2018-09-17T03:35:54.787Z,100454.23
2018-09-17T03:38:42.678Z,100459.12
2018-09-17T03:41:11.230Z,100451.22
2018-09-17T03:43:40.223Z,100453.58
2018-09-17T03:46:07.955Z,100452.67
2018-09-17T03:48:36.485Z,100454.14
2018-09-17T03:51:05.300Z,100459.45
2018-09-17T03:53:33.335Z,100456.31
2018-09-17T03:56:01.375Z,100463.53
2018-09-17T03:58:29.428Z,100463.87
2018-09-17T04:00:57.636Z,100465.09
2018-09-17T04:03:25.412Z,100468.48
2018-09-17T04:05:53.121Z,100468.17
2018-09-17T04:08:20.844Z,100469.14
2018-09-17T04:10:48.723Z,100473.09
2018-09-17T04:13:16.463Z,100471.49
2018-09-17T04:15:44.183Z,100473.97
2018-09-17T04:18:12.640Z,100465.75
2018-09-17T04:20:40.323Z,100464.44
2018-09-17T04:23:08.226Z,100466.16
2018-09-17T04:25:36.219Z,100465.19
2018-09-17T04:28:04.055Z,100464.41
2018-09-17T04:30:31.772Z,100470.36
2018-09-17T04:33:00.331Z,100464.72
2018-09-17T04:35:28.047Z,100466.72
2018-09-17T04:37:55.728Z,100468.95
2018-09-17T04:40:23.436Z,100463.91
2018-09-17T04:42:51.168Z,100463.91
2018-09-17T04:45:18.879Z,100463.11
2018-09-17T04:47:50.167Z,100469.41
2018-09-17T04:50:18.024Z,100463.48
2018-09-17T04:52:45.763Z,100468.09
2018-09-17T04:55:13.483Z,100472.05
2018-09-17T04:57:41.184Z,100466.84
2018-09-17T05:00:08.887Z,100468.31
2018-09-17T05:02:36.603Z,100469.50
2018-09-17T05:05:04.987Z,100474.14
2018-09-17T05:07:32.808Z,100469.31
2018-09-17T05:10:00.725Z,100473.58
2018-09-17T05:12:28.414Z,100469.73
2018-09-17T05:14:56.151Z,100468.18
2018-09-17T05:17:23.864Z,100464.42
2018-09-17T05:19:51.599Z,100467.86
2018-09-17T05:22:19.291Z,100460.49
2018-09-17T05:24:46.987Z,100466.45
2018-09-17T05:27:14.660Z,100460.75
2018-09-17T05:29:42.351Z,100462.41
2018-09-17T05:32:10.049Z,100465.73
2018-09-17T05:34:37.761Z,100465.02
2018-09-17T05:37:05.719Z,100461.09
2018-09-17T05:39:33.441Z,100468.69
2018-09-17T05:42:01.219Z,100463.31
2018-09-17T05:44:29.320Z,100459.73
2018-09-17T05:46:57.067Z,100455.94
2018-09-17T05:49:24.783Z,100464.60
2018-09-17T05:51:52.583Z,100458.65
2018-09-17T05:54:20.349Z,100461.72
2018-09-17T05:56:48.059Z,100460.09
2018-09-17T05:59:15.875Z,100465.02
2018-09-17T06:01:43.850Z,100467.75
2018-09-17T06:04:11.559Z,100474.97
2018-09-17T06:06:39.267Z,100469.80
2018-09-17T06:09:09.619Z,100476.86
2018-09-17T06:11:37.357Z,100477.27
2018-09-17T06:14:05.333Z,100478.27
2018-09-17T06:16:33.035Z,100474.45
2018-09-17T06:19:00.922Z,100477.86
2018-09-17T06:21:28.671Z,100480.81
2018-09-17T06:23:56.363Z,100486.11
2018-09-17T06:26:27.775Z,100487.27
2018-09-17T06:28:55.540Z,100483.12
2018-09-17T06:31:23.152Z,100489.53
2018-09-17T06:33:50.836Z,100489.16
2018-09-17T06:36:18.547Z,100490.55
2018-09-17T06:38:46.231Z,100494.41
2018-09-17T06:41:13.923Z,100493.98
2018-09-17T06:43:41.667Z,100493.76
2018-09-17T06:46:09.374Z,100493.72
2018-09-17T06:48:37.099Z,100495.63
2018-09-17T06:51:05.762Z,100489.99
2018-09-17T06:53:33.714Z,100490.92
2018-09-17T06:56:01.455Z,100489.92
2018-09-17T06:58:29.503Z,100487.66
2018-09-17T07:00:57.186Z,100483.46
2018-09-17T07:03:24.907Z,100478.88
2018-09-17T07:05:52.667Z,100485.22
2018-09-17T07:08:20.414Z,100483.16
2018-09-17T07:10:48.102Z,100475.86
2018-09-17T07:13:15.784Z,100470.84
2018-09-17T07:15:43.575Z,100472.16
2018-09-17T07:18:11.412Z,100470.17
2018-09-17T07:20:39.164Z,100477.59
2018-09-17T07:23:07.031Z,100477.78
2018-09-17T07:25:34.710Z,100478.77
2018-09-17T07:28:02.451Z,100473.91
2018-09-17T07:30:30.462Z,100468.61
2018-09-17T07:32:58.192Z,100471.00
2018-09-17T07:35:25.888Z,100468.48
2018-09-17T07:37:53.567Z,100470.86
2018-09-17T07:40:21.735Z,100471.02
2018-09-17T07:42:49.744Z,100479.08
2018-09-17T07:45:17.442Z,100480.22
2018-09-17T07:47:48.600Z,100478.00
2018-09-17T07:50:16.282Z,100472.41
2018-09-17T07:52:43.994Z,100462.83
2018-09-17T07:55:11.768Z,100466.27
2018-09-17T07:57:39.579Z,100463.17
2018-09-17T08:00:07.320Z,100462.21
2018-09-17T08:02:35.008Z,100466.11
2018-09-17T08:05:02.847Z,100467.64
2018-09-17T08:07:30.535Z,100462.27
2018-09-17T08:09:58.287Z,100459.02
2018-09-17T08:12:25.972Z,100451.67
2018-09-17T08:14:53.675Z,100442.69
2018-09-17T08:17:21.363Z,100445.07
2018-09-17T08:19:49.088Z,100442.05
2018-09-17T08:22:16.759Z,100444.30
2018-09-17T08:24:44.594Z,100445.30
2018-09-17T08:27:12.331Z,100442.97
2018-09-17T08:29:40.080Z,100436.90
2018-09-17T08:32:07.923Z,100432.69
2018-09-17T08:34:36.051Z,100435.09
2018-09-17T08:37:03.748Z,100433.73
2018-09-17T08:39:31.493Z,100434.90
2018-09-17T08:41:59.279Z,100427.07
2018-09-17T08:44:27.015Z,100433.14
2018-09-17T08:46:54.747Z,100430.15
2018-09-17T08:49:22.481Z,100430.63
2018-09-17T08:51:50.619Z,100430.45
2018-09-17T08:54:18.406Z,100427.56
2018-09-17T08:56:54.778Z,100425.48
2018-09-17T08:59:28.354Z,100422.09
2018-09-17T09:01:59.891Z,100418.17
2018-09-17T09:04:33.415Z,100410.92
2018-09-17T09:07:06.211Z,100408.03
2018-09-17T09:09:34.019Z,100405.84
2018-09-17T09:12:07.595Z,100406.01
2018-09-17T09:14:39.211Z,100399.95
2018-09-17T09:17:12.972Z,100398.48
2018-09-17T09:19:40.736Z,100392.21
2018-09-17T09:22:08.787Z,100385.25
2018-09-17T09:24:36.510Z,100385.84
2018-09-17T09:27:04.270Z,100387.48
2018-09-17T09:29:32.022Z,100380.11
2018-09-17T09:31:59.755Z,100381.67
2018-09-17T09:34:27.563Z,100379.13
2018-09-17T09:36:55.243Z,100377.22
2018-09-17T09:39:22.935Z,100375.01
2018-09-17T09:41:50.690Z,100374.31
2018-09-17T09:44:18.475Z,100375.66
2018-09-17T09:46:46.437Z,100371.52
2018-09-17T09:49:14.154Z,100367.75
2018-09-17T09:51:41.837Z,100376.64
2018-09-17T09:54:10.562Z,100372.08
2018-09-17T09:56:38.270Z,100369.93
2018-09-17T09:59:06.006Z,100372.59
2018-09-17T10:01:39.487Z,100370.19
2018-09-17T10:04:13.080Z,100368.02
2018-09-17T10:06:40.773Z,100366.08
2018-09-17T10:09:14.404Z,100368.18
2018-09-17T10:11:47.860Z,100366.13
2018-09-17T10:14:21.287Z,100371.83
2018-09-17T10:16:54.901Z,100365.06
2018-09-17T10:19:24.360Z,100357.98
2018-09-17T10:24:26.955Z,100357.75
2018-09-17T10:26:58.014Z,100357.80
2018-09-17T10:29:25.695Z,100359.27
2018-09-17T10:31:53.390Z,100350.72
2018-09-17T10:34:21.119Z,100349.39
2018-09-17T10:36:48.798Z,100349.14
2018-09-17T10:39:17.518Z,100341.14
2018-09-17T10:41:45.191Z,100347.27
2018-09-17T10:44:13.231Z,100336.27
2018-09-17T10:46:40.929Z,100334.28
2018-09-17T10:49:08.823Z,100331.72
2018-09-17T10:51:36.524Z,100327.12
2018-09-17T10:54:04.305Z,100325.86
2018-09-17T10:56:32.011Z,100324.66
2018-09-17T10:58:59.732Z,100322.80
2018-09-17T11:01:27.427Z,100312.59
2018-09-17T11:03:55.126Z,100314.59
2018-09-17T11:06:22.934Z,100318.55
2018-09-17T11:08:50.667Z,100317.30
2018-09-17T11:11:18.414Z,100311.95
2018-09-17T11:13:46.105Z,100318.16
2018-09-17T11:16:13.790Z,100324.63
2018-09-17T11:18:41.596Z,100306.84
2018-09-17T11:21:09.288Z,100295.97
2018-09-17T11:23:36.951Z,100294.58
2018-09-17T11:26:04.752Z,100294.72
2018-09-17T11:28:32.439Z,100285.23
2018-09-17T11:31:00.149Z,100285.41
2018-09-17T11:33:27.865Z,100285.58
2018-09-17T11:35:56.171Z,100278.28
2018-09-17T11:38:24.249Z,100271.80
2018-09-17T11:40:51.971Z,100274.20
2018-09-17T11:43:20.205Z,100272.66
2018-09-17T11:45:48.256Z,100268.08
2018-09-17T11:48:16.082Z,100263.34
2018-09-17T11:50:47.539Z,100267.20
2018-09-17T11:53:15.289Z,100260.91
2018-09-17T11:55:43.115Z,100257.99
2018-09-17T11:58:10.839Z,100256.95
2018-09-17T12:00:44.354Z,100252.23
2018-09-17T12:03:17.872Z,100251.66
2018-09-17T12:05:51.362Z,100249.73
2018-09-17T12:08:19.447Z,100244.21
2018-09-17T12:10:47.148Z,100233.27
2018-09-17T12:13:14.875Z,100230.63
2018-09-17T12:15:43.422Z,100226.75
2018-09-17T12:18:12.118Z,100222.07
2018-09-17T12:20:40.182Z,100213.19
2018-09-17T12:23:08.535Z,100210.41
2018-09-17T12:25:36.227Z,100207.86
2018-09-17T12:28:04.147Z,100206.63
2018-09-17T12:30:31.863Z,100203.90
2018-09-17T12:33:00.230Z,100198.08
2018-09-17T12:35:27.945Z,100202.59
2018-09-17T12:37:55.675Z,100192.56
2018-09-17T12:40:24.125Z,100186.13
2018-09-17T12:42:51.981Z,100187.84
2018-09-17T12:45:20.156Z,100185.16
2018-09-17T12:47:47.975Z,100186.22
2018-09-17T12:50:15.744Z,100185.72
2018-09-17T12:52:43.436Z,100174.66
2018-09-17T12:55:11.417Z,100166.23
2018-09-17T12:57:39.240Z,100170.25
2018-09-17T13:00:07.694Z,100159.88
2018-09-17T13:02:35.455Z,100160.74
2018-09-17T13:05:03.195Z,100160.97
2018-09-17T13:07:30.986Z,100160.66
2018-09-17T13:09:58.695Z,100151.39
2018-09-17T13:12:26.587Z,100156.72
2018-09-17T13:14:54.941Z,100148.17
2018-09-17T13:17:22.575Z,100151.08
2018-09-17T13:19:50.247Z,100147.48
2018-09-17T13:22:17.943Z,100144.41
2018-09-17T13:24:45.670Z,100139.22
2018-09-17T13:27:13.903Z,100131.79
2018-09-17T13:29:41.602Z,100131.80
2018-09-17T13:32:09.432Z,100128.23
2018-09-17T13:34:37.588Z,100124.28
2018-09-17T13:37:05.675Z,100115.25
2018-09-17T13:39:33.424Z,100118.16
2018-09-17T13:42:01.202Z,100114.06
2018-09-17T13:44:29.062Z,100108.15
2018-09-17T13:46:56.703Z,100106.45
2018-09-17T13:49:24.420Z,100098.21
2018-09-17T13:51:52.191Z,100093.97
2018-09-17T13:54:19.954Z,100096.00
2018-09-17T13:56:47.660Z,100097.56
2018-09-17T13:59:15.447Z,100095.36
2018-09-17T14:01:43.151Z,100093.75
2018-09-17T14:04:11.208Z,100099.11
2018-09-17T14:06:38.951Z,100090.27
2018-09-17T14:09:09.211Z,100081.41
2018-09-17T14:11:37.233Z,100087.61
2018-09-17T14:14:05.344Z,100084.97
2018-09-17T14:16:33.454Z,100089.47
2018-09-17T14:19:01.241Z,100086.20
2018-09-17T14:21:29.088Z,100081.08
2018-09-17T14:23:56.896Z,100077.53
2018-09-17T14:26:25.498Z,100078.73
2018-09-17T14:28:53.079Z,100067.39
2018-09-17T14:31:25.391Z,100068.86
2018-09-17T14:33:53.265Z,100069.33
2018-09-17T14:36:21.022Z,100059.18
2018-09-17T14:38:48.799Z,100060.38
2018-09-17T14:41:16.475Z,100053.56
2018-09-17T14:43:44.344Z,100051.59
2018-09-17T14:46:12.114Z,100050.97
2018-09-17T14:48:39.759Z,100045.60
2018-09-17T14:51:07.548Z,100043.09
2018-09-17T14:53:35.322Z,100038.78
2018-09-17T14:56:03.104Z,100035.83
2018-09-17T14:58:30.809Z,100038.53
2018-09-17T15:01:06.247Z,100032.41
2018-09-17T15:03:34.946Z,100035.91
2018-09-17T15:06:02.666Z,100026.31
2018-09-17T15:08:30.450Z,100029.55
2018-09-17T15:10:58.172Z,100022.23
2018-09-17T15:13:25.951Z,100026.59
2018-09-17T15:15:54.629Z,100023.02
2018-09-17T15:18:22.840Z,100015.72
2018-09-17T15:20:50.620Z,100018.06
2018-09-17T15:23:18.540Z,100013.61
2018-09-17T15:25:46.304Z,100014.31
2018-09-17T15:28:14.180Z,100013.08
2018-09-17T15:30:42.015Z,100015.06
2018-09-17T15:33:09.757Z,100010.67
2018-09-17T15:35:37.535Z,100006.91
2018-09-17T15:38:05.920Z,100010.58
2018-09-17T15:40:33.692Z,100005.97
2018-09-17T15:43:02.195Z,100010.94
2018-09-17T15:45:30.078Z,100003.54
2018-09-17T15:47:57.920Z,99998.50
2018-09-17T15:50:25.668Z,100000.10
2018-09-17T15:52:53.403Z,99993.13
2018-09-17T15:55:21.165Z,99993.31
2018-09-17T15:57:49.039Z,99990.88
2018-09-17T16:00:16.777Z,99990.18
2018-09-17T16:02:44.551Z,99990.77
2018-09-17T16:05:13.155Z,99990.66
2018-09-17T16:07:40.879Z,99987.55
2018-09-17T16:10:08.588Z,99987.04
2018-09-17T16:12:36.541Z,99979.38
2018-09-17T16:15:04.382Z,99978.33
2018-09-17T16:17:32.079Z,99978.52
2018-09-17T16:20:00.270Z,99978.98
2018-09-17T16:22:27.995Z,99974.66
2018-09-17T16:24:55.711Z,99979.05
2018-09-17T16:27:23.503Z,99981.20
2018-09-17T16:29:51.278Z,99982.27
2018-09-17T16:32:19.043Z,99980.38
2018-09-17T16:34:46.976Z,99978.55
2018-09-17T16:37:14.735Z,99977.23
2018-09-17T16:39:42.580Z,99980.53
2018-09-17T16:42:10.388Z,99978.73
2018-09-17T16:44:38.188Z,99977.19
2018-09-17T16:47:05.859Z,99975.92
2018-09-17T16:49:33.584Z,99978.97
2018-09-17T16:52:01.393Z,99974.72
2018-09-17T16:54:29.520Z,99976.93
2018-09-17T16:56:57.239Z,99975.06
2018-09-17T16:59:25.002Z,99977.30
2018-09-17T17:01:52.732Z,99976.80
2018-09-17T17:04:20.532Z,99978.19
2018-09-17T17:06:48.275Z,99974.95
2018-09-17T17:09:16.044Z,99982.50
2018-09-17T17:11:43.854Z,99977.15
2018-09-17T17:14:11.543Z,99978.21
2018-09-17T17:16:39.250Z,99980.59
2018-09-17T17:19:07.108Z,99970.39
2018-09-17T17:21:34.865Z,99967.97
2018-09-17T17:26:37.394Z,99970.88
2018-09-17T17:29:05.102Z,99978.90
2018-09-17T17:31:32.863Z,99973.52
2018-09-17T17:34:00.941Z,99983.39
2018-09-17T17:36:28.612Z,99983.08
2018-09-17T17:38:56.431Z,99985.70
2018-09-17T17:41:24.142Z,99983.19
2018-09-17T17:43:51.840Z,99992.75
2018-09-17T17:46:19.768Z,99991.33
2018-09-17T17:48:47.517Z,99992.55
2018-09-17T17:51:15.306Z,99995.22
2018-09-17T17:53:43.110Z,99997.53
2018-09-17T17:56:11.155Z,100001.16
2018-09-17T17:58:38.934Z,99999.44
2018-09-17T18:01:06.972Z,100006.59
2018-09-17T18:03:34.632Z,100002.99
2018-09-17T18:06:02.358Z,100002.91
2018-09-17T18:08:30.082Z,100005.52
2018-09-17T18:10:57.883Z,100015.33
2018-09-17T18:13:25.637Z,100011.98
2018-09-17T18:15:54.021Z,100014.83
2018-09-17T18:18:21.955Z,100019.28
2018-09-17T18:20:49.874Z,100021.00
2018-09-17T18:23:17.961Z,100023.28
2018-09-17T18:25:45.786Z,100016.83
2018-09-17T18:28:13.607Z,100018.37
2018-09-17T18:30:41.734Z,100018.83
2018-09-17T18:33:09.676Z,100019.78
2018-09-17T18:35:37.572Z,100018.92
2018-09-17T18:38:05.411Z,100012.98
2018-09-17T18:40:33.128Z,100014.79
2018-09-17T18:43:01.039Z,100015.54
2018-09-17T18:45:28.736Z,100011.23
2018-09-17T18:47:56.662Z,100010.91
2018-09-17T18:50:24.577Z,100013.30
2018-09-17T18:52:52.426Z,100008.66
2018-09-17T18:55:20.283Z,100013.63
2018-09-17T18:57:48.062Z,100009.55
2018-09-17T19:00:16.224Z,100008.44
2018-09-17T19:02:43.950Z,100013.68
2018-09-17T19:05:11.706Z,100015.70
2018-09-17T19:07:39.523Z,100011.58
2018-09-17T19:10:07.525Z,100012.27
2018-09-17T19:12:35.364Z,100008.70
2018-09-17T19:15:09.016Z,100006.72
2018-09-17T19:17:40.839Z,100009.84
2018-09-17T19:20:10.509Z,100007.08
2018-09-17T19:22:44.119Z,100009.66
2018-09-17T19:25:13.421Z,100007.17
2018-09-17T19:27:47.294Z,100005.77
2018-09-17T19:30:15.560Z,100005.14
2018-09-17T19:32:43.569Z,100007.81
2018-09-17T19:35:11.419Z,100008.20
2018-09-17T19:37:44.970Z,100001.96
2018-09-17T19:40:16.189Z,99999.78
2018-09-17T19:42:45.159Z,99997.55
2018-09-17T19:45:19.008Z,99996.08
2018-09-17T19:47:47.113Z,99992.75
2018-09-17T19:50:20.906Z,99989.98
2018-09-17T19:52:48.611Z,99992.08
2018-09-17T19:55:16.399Z,99994.31
2018-09-17T19:57:50.044Z,99992.32
2018-09-17T20:00:17.856Z,99990.67
2018-09-17T20:02:45.584Z,99989.72
2018-09-17T20:05:19.140Z,99985.34
2018-09-17T20:07:47.322Z,99987.72
2018-09-17T20:10:15.122Z,99991.80
2018-09-17T20:12:42.894Z,99991.59
2018-09-17T20:15:11.116Z,99991.03
2018-09-17T20:17:38.901Z,99984.50
2018-09-17T20:20:06.780Z,99979.19
2018-09-17T20:22:34.620Z,99974.59
2018-09-17T20:25:02.496Z,99980.47
2018-09-17T20:27:30.254Z,99976.53
2018-09-17T20:29:58.023Z,99971.81
2018-09-17T20:32:26.148Z,99976.38
2018-09-17T20:34:53.853Z,99977.55
2018-09-17T20:37:21.676Z,99976.59
2018-09-17T20:39:49.331Z,99977.06
2018-09-17T20:42:17.118Z,99976.62
2018-09-17T20:44:44.825Z,99978.79
2018-09-17T20:47:12.674Z,99977.13
2018-09-17T20:49:40.494Z,99983.70
2018-09-17T20:52:08.222Z,99980.03
2018-09-17T20:54:35.931Z,99975.91
2018-09-17T20:57:03.648Z,99976.20
2018-09-17T21:00:10.993Z,99975.83
2018-09-17T21:02:42.634Z,99975.14
2018-09-17T21:05:10.367Z,99980.30
2018-09-17T21:07:38.100Z,99968.73
2018-09-17T21:10:06.059Z,99971.86
2018-09-17T21:12:33.857Z,99975.95
2018-09-17T21:15:01.727Z,99969.31
2018-09-17T21:17:29.499Z,99969.47
2018-09-17T21:19:57.238Z,99968.42
2018-09-17T21:22:24.967Z,99967.56
2018-09-17T21:24:52.762Z,99973.79
2018-09-17T21:27:20.485Z,99977.77
2018-09-17T21:29:48.177Z,99975.79
2018-09-17T21:32:15.892Z,99984.39
2018-09-17T21:34:43.647Z,99987.41
2018-09-17T21:37:11.413Z,99985.14
2018-09-17T21:39:39.128Z,99986.82
2018-09-17T21:42:06.839Z,99996.30
2018-09-17T21:44:34.556Z,99990.23
2018-09-17T21:47:02.287Z,99990.42
2018-09-17T21:49:30.004Z,99992.13
2018-09-17T21:51:57.773Z,99990.36
2018-09-17T21:54:25.509Z,99995.19
2018-09-17T21:56:53.221Z,99998.22
2018-09-17T21:59:20.921Z,100002.85
2018-09-17T22:01:48.632Z,99999.47
2018-09-17T22:04:16.405Z,99995.38
2018-09-17T22:06:44.060Z,99994.47
2018-09-17T22:09:11.723Z,99996.91
2018-09-17T22:11:39.427Z,99999.06
2018-09-17T22:14:07.127Z,100000.52
2018-09-17T22:16:34.886Z,99996.36
2018-09-17T22:19:02.679Z,100005.58
2018-09-17T22:21:30.380Z,100000.80
2018-09-17T22:24:01.731Z,100006.84
2018-09-17T22:26:29.439Z,100002.41
2018-09-17T22:28:57.235Z,99999.15
2018-09-17T22:31:24.936Z,100002.84
2018-09-17T22:33:52.626Z,99999.02
2018-09-17T22:36:20.328Z,99998.70
2018-09-17T22:38:48.221Z,100001.58
2018-09-17T22:41:16.672Z,99996.43
2018-09-17T22:43:44.418Z,100006.06
2018-09-17T22:46:12.119Z,100001.80
2018-09-17T22:48:39.925Z,100000.77
2018-09-17T22:51:08.455Z,100003.64
2018-09-17T22:53:36.266Z,99993.16
2018-09-17T22:56:03.966Z,99992.65
2018-09-17T22:58:31.683Z,99994.72
2018-09-17T23:00:59.358Z,99988.38
2018-09-17T23:03:27.084Z,99995.46
2018-09-17T23:05:54.860Z,99991.39
2018-09-17T23:08:22.553Z,99991.84
2018-09-17T23:10:50.250Z,99989.25
2018-09-17T23:13:18.273Z,99990.00
2018-09-17T23:15:46.021Z,99990.80
2018-09-17T23:18:13.773Z,99989.41
2018-09-17T23:20:41.507Z,99986.47
2018-09-17T23:23:09.197Z,99990.64
2018-09-17T23:25:36.963Z,99991.77
2018-09-17T23:28:04.962Z,99988.31
2018-09-17T23:30:43.790Z,99988.09
2018-09-17T23:33:11.517Z,99980.55
2018-09-17T23:35:39.279Z,99981.80
2018-09-17T23:38:06.978Z,99984.36
2018-09-17T23:40:34.726Z,99980.38
2018-09-17T23:43:02.766Z,99982.32
2018-09-17T23:45:36.159Z,99978.34
2018-09-17T23:48:04.231Z,99977.20
2018-09-17T23:50:31.945Z,99978.75
2018-09-17T23:52:59.622Z,99988.73
2018-09-17T23:55:27.312Z,99980.89
2018-09-17T23:57:54.988Z,99989.30
